Etusivu
METAR-TAF:

METAR-TAF

Lentoasemat :

Grand Forks Air Force Base

Grand Forks, Pohjois-Dakota, Yhdysvallat

Leveyspiiri: 47-58N, Pituuspiiri: 097-24W, korkeus merenpinnasta: 278 m

Tämänhetkinen sää

Tämä raportti tehtiin 20 minuuttia sitten, kello 18.31 UTC
Tuuli 12 kn idästä/kaakosta
Lämpötila 12°C
Kosteus 100%
Ilmanpaine 1006 hPa
Näkyvyys: 16.1 km
Pilvistä 500 ft:n korkeudessa
heikkoa sadetta, utua

METAR: KRDR 241831Z AUTO 11012KT 10SM -RA BR OVC005 12/12 A2972 RMK AO2 RAE00DZB03E04DZB06E12RAB12 SLP073 $

Aika: 13:51 (18:51 UTC)


TAF: puuttuu

Säähavainnot ja -ennusteet yli 4000 lentoasemalta (METAR- ja TAF-raportit).

Käytössä olevat sääasemat on merkitty karttaan keltaisilla ja punaisilla pisteillä.

Aseta hiiri pisteen päälle nähdäksesi sääaseman nimen.

Klikkaa sitten nähdäksesi säähavainnot ja -ennusteet.

Kartan vaihtaminen: klikkaa mustalla rastilla varustettuja vihreitä pisteitä, niin voit zoomata sisään; viivalla varustettua vihreää pistettä, niin voit zoomata ulos tai vihreitä nuolia, niin pääset viereisille kartoille.


METAR-TAF: